Time;durP1;ratioP1;P1;durP2;ratioP2;P2;SDS_P1;SDS_P2;PMS_P1;PMS_P2;Temp;Humidity;BMP_temperature;BMP_pressure;BME280_temperature;BME280_humidity;BME280_pressure;Samples;Min_cycle;Max_cycle;Signal;HPM_P1;HPM_P2
2024/01/31 05:58:26;;;;;;;10.27;5.57;;;2.30;99.90;;;;;;7474103;19;2942828;-74
2024/01/31 06:00:58;;;;;;;10.10;5.43;;;2.20;99.90;;;;;;7643025;19;20035;-75
2024/01/31 06:03:31;;;;;;;9.55;5.60;;;2.30;99.90;;;;;;7645551;19;20085;-75
2024/01/31 06:06:04;;;;;;;9.75;5.60;;;2.30;99.90;;;;;;7641439;19;20358;-75
2024/01/31 06:08:36;;;;;;;10.68;6.10;;;2.30;99.90;;;;;;7643223;19;20048;-75
2024/01/31 06:11:09;;;;;;;11.63;5.93;;;2.40;99.90;;;;;;7648308;19;20018;-75
2024/01/31 06:13:41;;;;;;;15.38;6.20;;;2.40;99.90;;;;;;7637576;19;20018;-75
2024/01/31 06:16:14;;;;;;;10.52;5.82;;;2.30;99.90;;;;;;7631890;19;20847;-75
2024/01/31 06:18:47;;;;;;;15.48;7.90;;;2.30;99.90;;;;;;7634394;19;20175;-75
2024/01/31 06:21:19;;;;;;;16.80;8.80;;;2.40;99.90;;;;;;7627537;19;20014;-75
2024/01/31 06:23:52;;;;;;;13.45;7.68;;;2.50;99.90;;;;;;7632711;19;20047;-75
2024/01/31 06:26:24;;;;;;;15.98;7.60;;;2.50;99.90;;;;;;7621502;19;20638;-74
2024/01/31 06:28:57;;;;;;;15.03;8.10;;;2.60;99.90;;;;;;7620170;19;20252;-75
2024/01/31 06:31:29;;;;;;;17.77;8.65;;;2.60;99.90;;;;;;7628149;19;20290;-75
2024/01/31 06:34:02;;;;;;;16.23;8.85;;;2.80;99.90;;;;;;7612599;19;20082;-75
2024/01/31 06:36:34;;;;;;;17.80;9.25;;;2.80;99.90;;;;;;7617322;19;20427;-75
2024/01/31 06:39:07;;;;;;;16.30;8.60;;;2.80;99.90;;;;;;7624908;19;20741;-76
2024/01/31 06:41:39;;;;;;;20.98;8.63;;;2.80;99.90;;;;;;7630387;19;20021;-76
2024/01/31 06:44:11;;;;;;;16.05;9.02;;;2.80;99.90;;;;;;7633273;19;20022;-76
2024/01/31 06:46:47;;;;;;;16.45;9.38;;;2.90;99.90;;;;;;7618206;19;20014;-76
2024/01/31 06:49:20;;;;;;;16.25;9.18;;;2.90;99.90;;;;;;7635751;19;20018;-76
2024/01/31 06:51:53;;;;;;;14.70;8.90;;;2.90;99.90;;;;;;7622929;19;20018;-76
2024/01/31 06:54:25;;;;;;;21.50;10.05;;;2.90;99.90;;;;;;7631725;19;20077;-75
2024/01/31 06:56:57;;;;;;;18.95;9.30;;;2.90;99.90;;;;;;7631423;19;20041;-75
2024/01/31 06:59:30;;;;;;;18.48;9.80;;;3.00;99.90;;;;;;7628014;19;20357;-75
2024/01/31 07:02:02;;;;;;;26.23;9.73;;;3.30;99.90;;;;;;7637186;19;20025;-75
2024/01/31 07:04:34;;;;;;;16.90;8.60;;;3.30;99.90;;;;;;7646208;19;20026;-75
2024/01/31 07:07:07;;;;;;;22.37;9.27;;;3.50;99.90;;;;;;7643845;19;20054;-74
2024/01/31 07:09:39;;;;;;;17.95;9.23;;;3.60;99.90;;;;;;7606342;19;20283;-74
2024/01/31 07:12:12;;;;;;;18.25;9.57;;;3.70;99.90;;;;;;7614572;19;20025;-73
2024/01/31 07:14:44;;;;;;;14.73;7.75;;;3.70;99.90;;;;;;7592399;19;20018;-75
2024/01/31 07:17:16;;;;;;;15.13;8.88;;;3.70;99.90;;;;;;7591144;19;20063;-75
2024/01/31 07:19:49;;;;;;;21.00;8.32;;;3.50;99.90;;;;;;7590700;19;20945;-75
2024/01/31 07:22:21;;;;;;;18.25;9.02;;;3.50;99.90;;;;;;7600992;19;20018;-76
2024/01/31 07:24:54;;;;;;;30.40;8.77;;;3.60;99.90;;;;;;7583316;19;20019;-75
2024/01/31 07:27:26;;;;;;;15.40;8.73;;;3.50;99.90;;;;;;7599395;19;20553;-76
2024/01/31 07:29:59;;;;;;;17.17;9.30;;;3.50;99.90;;;;;;7595378;19;21562;-74
2024/01/31 07:32:31;;;;;;;19.48;10.55;;;3.50;99.90;;;;;;7594382;19;20014;-74
2024/01/31 19:11:27;;;;;;;63.33;28.52;;;4.70;99.90;;;;;;7603488;19;20363;-73
2024/01/31 19:14:19;;;;;;;60.42;27.98;;;4.30;99.90;;;;;;7609252;19;20018;-75
2024/01/31 19:16:51;;;;;;;59.72;28.52;;;4.30;99.90;;;;;;7607309;19;20023;-73
2024/01/31 19:19:24;;;;;;;61.45;29.48;;;4.30;99.90;;;;;;7616461;19;20016;-72
2024/01/31 19:21:56;;;;;;;64.80;32.30;;;4.40;99.90;;;;;;7611014;19;20018;-73
2024/01/31 19:24:29;;;;;;;63.47;31.27;;;4.40;99.90;;;;;;7611852;19;20015;-76
2024/01/31 19:27:01;;;;;;;67.47;31.83;;;4.60;99.90;;;;;;7609651;19;20021;-72
2024/01/31 19:29:34;;;;;;;56.00;30.95;;;4.70;99.90;;;;;;7597715;19;20029;-73
2024/01/31 19:32:06;;;;;;;61.05;29.20;;;4.80;99.90;;;;;;7610415;19;20010;-71
2024/01/31 19:34:39;;;;;;;56.05;28.35;;;4.70;99.90;;;;;;7607548;19;20018;-74
2024/01/31 19:37:11;;;;;;;59.33;29.17;;;4.70;99.90;;;;;;7612082;19;20025;-73
2024/01/31 19:39:43;;;;;;;57.08;27.98;;;4.80;99.90;;;;;;7597421;19;20021;-71
2024/01/31 19:42:16;;;;;;;57.72;26.15;;;4.70;99.90;;;;;;7616026;19;20018;-73
2024/01/31 19:44:48;;;;;;;63.97;27.17;;;4.50;99.90;;;;;;7613022;19;20018;-71
2024/01/31 19:47:21;;;;;;;53.75;22.95;;;4.50;99.90;;;;;;7608735;19;20030;-73
2024/01/31 19:49:57;;;;;;;40.42;21.45;;;4.40;99.90;;;;;;7608836;19;20025;-74
2024/01/31 19:52:31;;;;;;;40.80;21.30;;;4.30;99.90;;;;;;7612939;19;20098;-76
2024/01/31 19:55:05;;;;;;;42.03;19.90;;;4.40;99.90;;;;;;7611907;19;20688;-74
2024/01/31 19:57:38;;;;;;;39.97;21.02;;;4.60;99.90;;;;;;7613311;19;20082;-72
2024/01/31 20:00:12;;;;;;;47.55;22.98;;;4.60;99.90;;;;;;7609963;19;20395;-68
2024/01/31 20:02:44;;;;;;;53.60;24.65;;;4.50;99.90;;;;;;7611636;19;20897;-70
2024/01/31 20:05:17;;;;;;;50.88;24.17;;;4.20;99.90;;;;;;7602891;19;20014;-69
2024/01/31 20:07:49;;;;;;;49.38;22.45;;;4.00;99.90;;;;;;7611020;19;20021;-71
2024/01/31 20:10:22;;;;;;;42.92;21.92;;;3.90;99.90;;;;;;7592648;19;20042;-73
2024/01/31 20:12:55;;;;;;;39.97;21.65;;;3.80;99.90;;;;;;7597414;19;21365;-74
2024/01/31 20:15:27;;;;;;;47.17;24.17;;;3.70;99.90;;;;;;7609997;19;20376;-74
2024/01/31 20:17:59;;;;;;;42.65;24.25;;;3.50;99.90;;;;;;7592572;19;20014;-74
2024/01/31 20:20:32;;;;;;;45.22;24.05;;;3.50;99.90;;;;;;7593100;19;20022;-71
2024/01/31 20:23:06;;;;;;;40.38;23.33;;;3.40;99.90;;;;;;7584313;19;20026;-74
2024/01/31 20:25:42;;;;;;;42.80;22.55;;;3.30;99.90;;;;;;7587764;19;20354;-73
2024/01/31 20:28:15;;;;;;;48.17;24.05;;;3.30;99.90;;;;;;7566104;19;20048;-74
2024/01/31 20:30:47;;;;;;;51.13;23.07;;;3.30;99.90;;;;;;7574239;19;20026;-72
2024/01/31 20:33:19;;;;;;;43.15;22.33;;;3.20;99.90;;;;;;7600291;19;20015;-75
2024/01/31 20:35:53;;;;;;;42.30;21.98;;;3.20;99.90;;;;;;7591858;19;20107;-73
2024/01/31 20:38:25;;;;;;;45.17;19.88;;;3.40;99.90;;;;;;7581297;19;20025;-74
2024/01/31 20:40:57;;;;;;;42.63;19.05;;;3.40;99.90;;;;;;7589267;19;20018;-73
2024/01/31 20:43:30;;;;;;;42.03;19.60;;;3.50;99.90;;;;;;7589520;19;20015;-75
2024/01/31 20:46:04;;;;;;;70.90;31.63;;;3.50;99.90;;;;;;7572735;19;20024;-74
2024/01/31 20:48:38;;;;;;;95.43;37.95;;;3.60;99.90;;;;;;7582350;19;20444;-72
2024/01/31 20:51:12;;;;;;;81.43;34.50;;;3.80;99.90;;;;;;7590786;19;20089;-73
2024/01/31 20:53:49;;;;;;;80.40;34.13;;;3.70;99.90;;;;;;7572175;19;20018;-72
2024/01/31 20:56:22;;;;;;;70.90;31.33;;;3.70;99.90;;;;;;7588718;19;20539;-71
2024/01/31 20:58:58;;;;;;;65.22;29.85;;;3.60;99.90;;;;;;7591396;19;20014;-72
2024/01/31 21:01:31;;;;;;;51.85;25.08;;;3.60;99.90;;;;;;7591048;19;20037;-71
2024/01/31 21:04:06;;;;;;;50.80;25.63;;;3.50;99.90;;;;;;7594286;19;21341;-72
2024/01/31 21:06:38;;;;;;;54.78;25.00;;;3.60;99.90;;;;;;7590353;19;22387;-72
2024/01/31 21:09:11;;;;;;;45.93;22.03;;;3.50;99.90;;;;;;7588339;19;20018;-71
